Terminal Aerodrome Forecast
Issued by NWS

Home | Current Version | Previous Version | Text Only | Print | Product List | Glossary On
Versions: 1 2 3 4 5 6 7 8 9 10 11 12 13 14 15 16 17 18 19 20 21 22 23 24 25 26 27
000
FTUS44 KFWD 031507 AAA
TAFGKY
TAF AMD
KGKY 031507Z 0315/0412 06012KT P6SM -SHRA OVC008
     FM031700 06011KT 5SM -SHRA BR OVC007
     FM032300 04010KT 4SM BR OVC011
     FM040500 01008KT 3SM -DZ BR OVC004=

USA.gov is the U.S. government's official web portal to all federal, state and local government web resources and services.